Terminal Aerodrome Forecast
Issued by NWS

Home | Current Version | Previous Version | Text Only | Print | Product List | Glossary On
Versions: 1 2 3 4 5 6 7 8 9 10 11 12 13 14 15 16 17 18 19 20 21
002
FTUS43 KDVN 140524
TAFBRL
TAF
KBRL 140524Z 1406/1506 36012KT P6SM OVC025
     FM140900 35005KT P6SM BKN035
     FM141600 28005KT P6SM BKN050=

USA.gov is the U.S. government's official web portal to all federal, state and local government web resources and services.